createdAt,value
2016-12-26T00:00:27.510Z,0
2016-12-26T00:01:08.067Z,0
2016-12-26T00:01:48.603Z,0
2016-12-26T00:02:29.117Z,0
2016-12-26T00:03:09.643Z,0
2016-12-26T00:03:50.173Z,0
2016-12-26T00:04:30.709Z,0
2016-12-26T00:05:11.240Z,0
2016-12-26T00:05:51.780Z,0
2016-12-26T00:06:32.313Z,0
2016-12-26T00:07:12.844Z,0
2016-12-26T00:07:53.384Z,0
2016-12-26T00:08:33.959Z,0
2016-12-26T00:09:14.500Z,0
2016-12-26T00:09:55.046Z,0
2016-12-26T00:10:35.568Z,0
2016-12-26T00:11:16.087Z,0
2016-12-26T00:11:56.616Z,0
2016-12-26T00:12:37.162Z,0
2016-12-26T00:13:17.685Z,0
2016-12-26T00:13:58.237Z,0
2016-12-26T00:14:38.766Z,0
2016-12-26T00:15:19.362Z,0
2016-12-26T00:16:00.157Z,0
2016-12-26T00:16:40.698Z,0
2016-12-26T00:17:21.250Z,0
2016-12-26T00:18:01.777Z,0
2016-12-26T00:18:42.349Z,0
2016-12-26T00:19:22.874Z,0
2016-12-26T00:20:03.412Z,0
2016-12-26T00:20:43.981Z,0
2016-12-26T00:21:24.522Z,0
2016-12-26T00:22:05.059Z,0
2016-12-26T00:22:45.624Z,0
2016-12-26T00:23:26.222Z,0
2016-12-26T00:24:06.756Z,0
2016-12-26T00:24:47.271Z,0
2016-12-26T00:25:27.792Z,0
2016-12-26T00:26:08.326Z,0
2016-12-26T00:26:48.861Z,0
2016-12-26T00:27:29.408Z,0
2016-12-26T00:28:09.930Z,0
2016-12-26T00:28:50.461Z,0
2016-12-26T00:29:30.989Z,0
2016-12-26T00:30:11.527Z,0
2016-12-26T00:30:52.069Z,0
2016-12-26T00:31:32.605Z,0
2016-12-26T00:32:13.168Z,0
2016-12-26T00:32:53.690Z,0
2016-12-26T00:33:34.221Z,0
2016-12-26T00:34:14.746Z,0
2016-12-26T00:34:55.281Z,0
2016-12-26T00:35:35.795Z,0
2016-12-26T00:36:16.320Z,0
2016-12-26T00:36:56.849Z,0
2016-12-26T00:37:37.383Z,0
2016-12-26T00:38:17.917Z,0
2016-12-26T00:38:58.454Z,0
2016-12-26T00:39:38.977Z,0
2016-12-26T00:40:19.496Z,0
2016-12-26T00:41:00.019Z,0
2016-12-26T00:41:40.649Z,0
2016-12-26T00:42:21.167Z,0
2016-12-26T00:43:01.811Z,0
2016-12-26T00:43:42.321Z,0
2016-12-26T00:44:22.850Z,0
2016-12-26T00:45:03.384Z,0
2016-12-26T00:45:43.956Z,0
2016-12-26T00:46:24.509Z,0
2016-12-26T00:47:05.033Z,0
2016-12-26T00:47:45.577Z,0
2016-12-26T00:48:26.094Z,0
2016-12-26T00:49:06.637Z,0
2016-12-26T00:49:47.185Z,0
2016-12-26T00:50:27.722Z,0
2016-12-26T00:51:08.238Z,0
2016-12-26T00:51:48.769Z,0
2016-12-26T00:52:29.402Z,0
2016-12-26T00:53:09.999Z,0
2016-12-26T00:53:50.563Z,0
2016-12-26T00:54:31.086Z,0
2016-12-26T00:55:11.637Z,0
2016-12-26T00:55:52.161Z,0
2016-12-26T00:56:32.701Z,0
2016-12-26T00:57:13.230Z,0
2016-12-26T00:57:53.761Z,0
2016-12-26T00:58:34.300Z,0
2016-12-26T00:59:14.824Z,0
2016-12-26T00:59:55.356Z,0
2016-12-26T01:00:35.891Z,0
2016-12-26T01:01:16.438Z,0
2016-12-26T01:01:56.975Z,0
2016-12-26T01:02:37.514Z,0
2016-12-26T01:03:18.048Z,0
2016-12-26T01:03:58.574Z,0
2016-12-26T01:04:39.125Z,0
2016-12-26T01:05:19.659Z,0
2016-12-26T01:06:00.188Z,0
2016-12-26T01:06:40.712Z,0
2016-12-26T01:07:21.238Z,0
2016-12-26T01:08:01.762Z,0
2016-12-26T01:08:42.309Z,0
2016-12-26T01:09:22.840Z,0
2016-12-26T01:10:03.367Z,0
2016-12-26T01:10:43.897Z,0
2016-12-26T01:11:24.431Z,0
2016-12-26T01:12:04.975Z,0
2016-12-26T01:12:45.487Z,0
2016-12-26T01:13:26.011Z,0
2016-12-26T01:14:06.551Z,0
2016-12-26T01:14:47.074Z,0
2016-12-26T01:15:27.601Z,0
2016-12-26T01:16:08.135Z,0
2016-12-26T01:16:48.664Z,0
2016-12-26T01:17:29.189Z,0
2016-12-26T01:18:09.715Z,0
2016-12-26T01:18:50.241Z,0
2016-12-26T01:19:30.761Z,0
2016-12-26T01:20:11.293Z,0
2016-12-26T01:20:51.811Z,0
2016-12-26T01:21:32.332Z,0
2016-12-26T01:22:12.855Z,0
2016-12-26T01:22:53.389Z,0
2016-12-26T01:23:33.910Z,0
2016-12-26T01:24:14.440Z,0
2016-12-26T01:24:54.969Z,0
2016-12-26T01:25:35.503Z,0
2016-12-26T01:26:16.037Z,0
2016-12-26T01:26:56.550Z,0
2016-12-26T01:27:37.098Z,0
2016-12-26T01:28:17.618Z,0
2016-12-26T01:28:58.158Z,0
2016-12-26T01:29:38.697Z,0
2016-12-26T01:30:19.228Z,0
2016-12-26T01:30:59.764Z,0
2016-12-26T01:31:40.285Z,0
2016-12-26T01:32:20.817Z,0
2016-12-26T01:33:01.349Z,0
2016-12-26T01:33:41.884Z,0
2016-12-26T01:34:22.419Z,0
2016-12-26T01:35:02.953Z,0
2016-12-26T01:35:43.493Z,0
2016-12-26T01:36:24.011Z,0
2016-12-26T01:37:04.557Z,0
2016-12-26T01:37:45.093Z,0
2016-12-26T01:38:25.628Z,0
2016-12-26T01:39:06.144Z,0
2016-12-26T01:39:46.672Z,0
2016-12-26T01:40:27.207Z,0
2016-12-26T01:41:07.736Z,0
2016-12-26T01:41:48.262Z,0
2016-12-26T01:42:28.791Z,0
2016-12-26T01:43:09.318Z,0
2016-12-26T01:43:49.858Z,0
2016-12-26T01:44:30.385Z,0
2016-12-26T01:45:10.920Z,0
2016-12-26T01:45:51.450Z,0
2016-12-26T01:46:31.981Z,0
2016-12-26T01:47:12.503Z,0
2016-12-26T01:47:53.035Z,0
2016-12-26T01:48:33.568Z,0
2016-12-26T01:49:14.074Z,0
2016-12-26T01:49:54.608Z,0
2016-12-26T01:50:35.134Z,0
2016-12-26T01:51:15.665Z,0
2016-12-26T01:51:56.196Z,0
2016-12-26T01:52:36.719Z,0
2016-12-26T01:53:17.253Z,0
2016-12-26T01:53:57.783Z,0
2016-12-26T01:54:38.306Z,0
2016-12-26T01:55:18.836Z,0
2016-12-26T01:55:59.374Z,0
2016-12-26T01:56:39.885Z,0
2016-12-26T01:57:20.431Z,0
2016-12-26T01:58:00.946Z,0
2016-12-26T01:58:41.472Z,0
2016-12-26T01:59:22.001Z,0
2016-12-26T02:00:02.531Z,0
2016-12-26T02:00:43.060Z,0
2016-12-26T02:01:23.604Z,0
2016-12-26T02:02:04.139Z,0
2016-12-26T02:02:44.672Z,0
2016-12-26T02:03:25.207Z,0
2016-12-26T02:04:05.713Z,0
2016-12-26T02:04:46.259Z,0
2016-12-26T02:05:26.782Z,0
2016-12-26T02:06:07.308Z,0
2016-12-26T02:06:47.836Z,0
2016-12-26T02:07:28.356Z,0
2016-12-26T02:08:08.891Z,0
2016-12-26T02:08:49.424Z,0
2016-12-26T02:09:29.945Z,0
2016-12-26T02:10:10.480Z,0
2016-12-26T02:10:51.007Z,0
2016-12-26T02:11:31.536Z,0
2016-12-26T02:12:12.057Z,0
2016-12-26T02:12:52.569Z,0
2016-12-26T02:13:33.089Z,0
2016-12-26T02:14:13.618Z,0
2016-12-26T02:14:54.152Z,0
2016-12-26T02:15:34.682Z,0
2016-12-26T02:16:15.211Z,0
2016-12-26T02:16:55.733Z,0
2016-12-26T02:17:36.267Z,0
2016-12-26T02:18:16.781Z,0
2016-12-26T02:18:57.307Z,0
2016-12-26T02:19:37.832Z,0
2016-12-26T02:20:18.370Z,0
2016-12-26T02:20:58.899Z,0
2016-12-26T02:21:39.430Z,0
2016-12-26T02:22:19.950Z,0
2016-12-26T02:23:00.481Z,0
2016-12-26T02:23:41.025Z,0
2016-12-26T02:24:21.550Z,0
2016-12-26T02:25:02.056Z,0
2016-12-26T02:25:42.578Z,0
2016-12-26T02:26:23.113Z,0
2016-12-26T02:27:03.649Z,0
2016-12-26T02:27:44.186Z,0
2016-12-26T02:28:24.719Z,0
2016-12-26T02:29:05.250Z,0
2016-12-26T02:29:45.775Z,0
2016-12-26T02:30:26.309Z,0
2016-12-26T02:31:06.842Z,0
2016-12-26T02:31:47.383Z,0
2016-12-26T02:32:27.929Z,0
2016-12-26T02:33:08.456Z,0
2016-12-26T02:33:48.990Z,0
2016-12-26T02:34:29.524Z,0
2016-12-26T02:35:10.053Z,0
2016-12-26T02:35:50.588Z,0
2016-12-26T02:36:31.138Z,0
2016-12-26T02:37:11.656Z,0
2016-12-26T02:37:52.188Z,0
2016-12-26T02:38:32.723Z,0
2016-12-26T02:39:13.250Z,0
2016-12-26T02:39:53.776Z,0
2016-12-26T02:40:34.316Z,0
2016-12-26T02:41:14.839Z,0
2016-12-26T02:41:55.365Z,0
2016-12-26T02:42:35.897Z,0
2016-12-26T02:43:16.426Z,0
2016-12-26T02:43:56.951Z,0
2016-12-26T02:44:37.478Z,0
2016-12-26T02:45:18.000Z,0
2016-12-26T02:45:58.524Z,0
2016-12-26T02:46:39.054Z,0
2016-12-26T02:47:19.591Z,0
2016-12-26T02:48:00.120Z,0
2016-12-26T02:48:40.662Z,0
2016-12-26T02:49:21.193Z,0
2016-12-26T02:50:01.724Z,0
2016-12-26T02:50:42.251Z,0
2016-12-26T02:51:22.782Z,0
2016-12-26T02:52:03.318Z,0
2016-12-26T02:52:43.841Z,0
2016-12-26T02:53:24.373Z,0
2016-12-26T02:54:04.890Z,0
2016-12-26T02:54:45.400Z,0
2016-12-26T02:55:25.939Z,0
2016-12-26T02:56:06.482Z,0
2016-12-26T02:56:47.009Z,0
2016-12-26T02:57:27.535Z,0
2016-12-26T02:58:08.055Z,0
2016-12-26T02:58:48.585Z,0
2016-12-26T02:59:29.122Z,0
2016-12-26T03:00:09.640Z,0
2016-12-26T03:00:50.179Z,0
2016-12-26T03:01:30.697Z,0
2016-12-26T03:02:11.227Z,0
2016-12-26T03:02:51.764Z,0
2016-12-26T03:03:32.298Z,0
2016-12-26T03:04:12.824Z,0
2016-12-26T03:04:53.347Z,0
2016-12-26T03:05:33.886Z,0
2016-12-26T03:06:14.420Z,0
2016-12-26T03:06:54.947Z,0
2016-12-26T03:07:35.520Z,0
2016-12-26T03:08:16.080Z,0
2016-12-26T03:08:56.648Z,0
2016-12-26T03:09:37.223Z,0
2016-12-26T03:10:17.809Z,0
2016-12-26T03:10:58.395Z,0
2016-12-26T03:11:38.976Z,0
2016-12-26T03:12:19.553Z,0
2016-12-26T03:13:00.129Z,0
2016-12-26T03:13:40.704Z,0
2016-12-26T03:14:21.279Z,0
2016-12-26T03:15:01.846Z,0
2016-12-26T03:15:42.414Z,0
2016-12-26T03:16:22.985Z,0
2016-12-26T03:17:03.556Z,0
2016-12-26T03:17:44.123Z,0
2016-12-26T03:18:24.701Z,0
2016-12-26T03:19:05.271Z,0
2016-12-26T03:19:45.852Z,0
2016-12-26T03:20:26.427Z,0
2016-12-26T03:21:07.013Z,0
2016-12-26T03:21:47.590Z,0
2016-12-26T03:22:28.160Z,0
2016-12-26T03:23:08.741Z,0
2016-12-26T03:23:49.317Z,0
2016-12-26T03:24:29.896Z,0
2016-12-26T03:25:10.482Z,0
2016-12-26T03:25:51.056Z,0
2016-12-26T03:26:31.634Z,0
2016-12-26T03:27:12.222Z,0
2016-12-26T03:27:52.795Z,0
2016-12-26T03:28:33.377Z,0
2016-12-26T03:29:13.954Z,0
2016-12-26T03:29:54.539Z,0
2016-12-26T03:30:35.117Z,0
2016-12-26T03:31:15.691Z,0
2016-12-26T03:31:56.222Z,0
2016-12-26T03:32:36.754Z,0
2016-12-26T03:33:17.281Z,0
2016-12-26T03:33:57.809Z,0
2016-12-26T03:34:38.340Z,0
2016-12-26T03:35:18.868Z,0
2016-12-26T03:35:59.406Z,0
2016-12-26T03:36:39.943Z,0
2016-12-26T03:37:20.460Z,0
2016-12-26T03:38:01.000Z,0
2016-12-26T03:38:41.533Z,0
2016-12-26T03:39:22.061Z,0
2016-12-26T03:40:02.584Z,0
2016-12-26T03:40:43.120Z,0
2016-12-26T03:41:23.645Z,0
2016-12-26T03:42:04.181Z,0
2016-12-26T03:42:44.714Z,0
2016-12-26T03:43:25.286Z,0
2016-12-26T03:44:05.868Z,0
2016-12-26T03:44:46.435Z,0
2016-12-26T03:45:27.009Z,0
2016-12-26T03:46:07.587Z,0
2016-12-26T03:46:48.173Z,0
2016-12-26T03:47:28.753Z,0
2016-12-26T03:48:09.329Z,0
2016-12-26T03:48:49.907Z,0
2016-12-26T03:49:30.481Z,0
2016-12-26T03:50:11.067Z,0
2016-12-26T03:50:51.647Z,0
2016-12-26T03:51:32.225Z,0
2016-12-26T03:52:12.745Z,0
2016-12-26T03:52:53.276Z,0
2016-12-26T03:53:33.815Z,0
2016-12-26T03:54:14.391Z,0
2016-12-26T03:54:54.958Z,0
2016-12-26T03:55:35.539Z,0
2016-12-26T03:56:16.123Z,0
2016-12-26T03:56:56.700Z,0
2016-12-26T03:57:37.276Z,0
2016-12-26T03:58:17.854Z,0
2016-12-26T03:58:58.441Z,0
2016-12-26T03:59:39.023Z,0
2016-12-26T04:00:19.595Z,0
2016-12-26T04:01:00.174Z,0
2016-12-26T04:01:40.749Z,0
2016-12-26T04:02:21.315Z,0
2016-12-26T04:03:01.888Z,0
2016-12-26T04:03:42.471Z,0
2016-12-26T04:04:23.054Z,0
2016-12-26T04:05:03.636Z,0
2016-12-26T04:05:44.213Z,0
2016-12-26T04:06:24.784Z,0
2016-12-26T04:07:05.368Z,0
2016-12-26T04:07:45.946Z,0
2016-12-26T04:08:26.526Z,0
2016-12-26T04:09:07.105Z,0
2016-12-26T04:09:47.684Z,0
2016-12-26T04:10:28.257Z,0
2016-12-26T04:11:08.841Z,0
2016-12-26T04:11:49.415Z,0
2016-12-26T04:12:29.987Z,0
2016-12-26T04:13:10.577Z,0
2016-12-26T04:13:51.153Z,0
2016-12-26T04:14:31.731Z,0
2016-12-26T04:15:12.319Z,0
2016-12-26T04:15:52.899Z,0
2016-12-26T04:16:33.474Z,0
2016-12-26T04:17:14.049Z,0
2016-12-26T04:17:54.625Z,0
2016-12-26T04:18:35.201Z,0
2016-12-26T04:19:15.780Z,0
2016-12-26T04:19:56.347Z,0
2016-12-26T04:20:36.914Z,0
2016-12-26T04:21:17.488Z,0
2016-12-26T04:21:58.067Z,0
2016-12-26T04:22:38.641Z,0
2016-12-26T04:23:19.218Z,0
2016-12-26T04:23:59.809Z,0
2016-12-26T04:24:40.378Z,0
2016-12-26T04:25:20.950Z,0
2016-12-26T04:26:01.529Z,0
2016-12-26T04:26:42.118Z,0
2016-12-26T04:27:22.688Z,0
2016-12-26T04:28:03.264Z,0
2016-12-26T04:28:43.835Z,0
2016-12-26T04:29:24.416Z,0
2016-12-26T04:30:04.997Z,0
2016-12-26T04:30:45.567Z,0
2016-12-26T04:31:26.150Z,0
2016-12-26T04:32:06.734Z,0
2016-12-26T04:32:47.308Z,0
2016-12-26T04:33:27.890Z,0
2016-12-26T04:34:08.466Z,0
2016-12-26T04:34:49.048Z,0
2016-12-26T04:35:29.628Z,0
2016-12-26T04:36:10.208Z,0
2016-12-26T04:36:50.785Z,0
2016-12-26T04:37:31.357Z,0
2016-12-26T04:38:11.940Z,0
2016-12-26T04:38:52.518Z,0
2016-12-26T04:39:33.089Z,0
2016-12-26T04:40:13.664Z,0
2016-12-26T04:40:54.246Z,0
2016-12-26T04:41:34.830Z,0
2016-12-26T04:42:15.410Z,0
2016-12-26T04:42:55.980Z,0
2016-12-26T04:43:36.569Z,0
2016-12-26T04:44:17.153Z,0
2016-12-26T04:44:57.733Z,0
2016-12-26T04:45:38.315Z,0
2016-12-26T04:46:18.896Z,0
2016-12-26T04:46:59.478Z,0
2016-12-26T04:47:40.055Z,0
2016-12-26T04:48:20.625Z,0
2016-12-26T04:49:01.203Z,0
2016-12-26T04:49:41.730Z,0
2016-12-26T04:50:22.262Z,0
2016-12-26T04:51:02.786Z,0
2016-12-26T04:51:43.321Z,0
2016-12-26T04:52:23.852Z,0
2016-12-26T04:53:04.382Z,0
2016-12-26T04:53:44.914Z,0
2016-12-26T04:54:25.450Z,0
2016-12-26T04:55:05.967Z,0
2016-12-26T04:55:46.503Z,0
2016-12-26T04:56:27.043Z,0
2016-12-26T04:57:07.572Z,0
2016-12-26T04:57:48.093Z,0
2016-12-26T04:58:28.620Z,0
2016-12-26T04:59:09.148Z,0
2016-12-26T04:59:49.680Z,0
2016-12-26T05:00:30.214Z,0
2016-12-26T05:01:10.748Z,0
2016-12-26T05:01:51.277Z,0
2016-12-26T05:02:31.809Z,0
2016-12-26T05:03:12.339Z,0
2016-12-26T05:03:52.862Z,0
2016-12-26T05:04:33.404Z,0
2016-12-26T05:05:13.924Z,0
2016-12-26T05:05:54.459Z,0
2016-12-26T05:06:34.990Z,0
2016-12-26T05:07:15.537Z,0
2016-12-26T05:07:56.059Z,0
2016-12-26T05:08:36.592Z,0
2016-12-26T05:09:17.124Z,0
2016-12-26T05:09:57.650Z,0
2016-12-26T05:10:38.183Z,0
2016-12-26T05:11:18.698Z,0
2016-12-26T05:11:59.230Z,0
2016-12-26T05:12:39.759Z,0
2016-12-26T05:13:20.292Z,0
2016-12-26T05:14:00.816Z,0
2016-12-26T05:14:41.340Z,0
2016-12-26T05:15:21.870Z,0
2016-12-26T05:16:02.402Z,0
2016-12-26T05:16:42.924Z,0
2016-12-26T05:17:23.457Z,0
2016-12-26T05:18:03.983Z,0
2016-12-26T05:18:44.503Z,0
2016-12-26T05:19:25.037Z,0
2016-12-26T05:20:05.561Z,0
2016-12-26T05:20:46.101Z,0
2016-12-26T05:21:26.639Z,0
2016-12-26T05:22:07.163Z,0
2016-12-26T05:22:47.709Z,0
2016-12-26T05:23:28.236Z,0
2016-12-26T05:24:08.766Z,0
2016-12-26T05:24:49.293Z,0
2016-12-26T05:25:29.816Z,0
2016-12-26T05:26:10.347Z,0
2016-12-26T05:26:50.881Z,0
2016-12-26T05:27:31.408Z,0
2016-12-26T05:28:11.947Z,0
2016-12-26T05:28:52.467Z,0
2016-12-26T05:29:32.999Z,0
2016-12-26T05:30:13.531Z,0
2016-12-26T05:30:54.063Z,0
2016-12-26T05:31:34.595Z,0
2016-12-26T05:32:15.118Z,0
2016-12-26T05:32:55.652Z,0
2016-12-26T05:33:36.187Z,0
2016-12-26T05:34:16.723Z,0
2016-12-26T05:34:57.247Z,0
2016-12-26T05:35:37.772Z,0
2016-12-26T05:36:18.299Z,0
2016-12-26T05:36:58.824Z,0
2016-12-26T05:37:39.359Z,0
2016-12-26T05:38:19.885Z,0
2016-12-26T05:39:00.424Z,0
2016-12-26T05:39:40.952Z,0
2016-12-26T05:40:21.476Z,0
2016-12-26T05:41:02.034Z,0
2016-12-26T05:41:42.561Z,0
2016-12-26T05:42:23.097Z,0
2016-12-26T05:43:03.625Z,0
2016-12-26T05:43:44.153Z,0
2016-12-26T05:44:24.684Z,0
2016-12-26T05:45:05.208Z,0
2016-12-26T05:45:45.750Z,0
2016-12-26T05:46:26.282Z,0
2016-12-26T05:47:06.809Z,0
2016-12-26T05:47:47.343Z,0
2016-12-26T05:48:27.874Z,0
2016-12-26T05:49:08.407Z,0
2016-12-26T05:49:48.935Z,0
2016-12-26T05:50:29.460Z,0
2016-12-26T05:51:10.044Z,0
2016-12-26T05:51:50.572Z,0
2016-12-26T05:52:31.101Z,0
2016-12-26T05:53:11.635Z,0
2016-12-26T05:53:52.157Z,0
2016-12-26T05:54:32.686Z,0
2016-12-26T05:55:13.216Z,0
2016-12-26T05:55:53.745Z,0
2016-12-26T05:56:34.279Z,0
2016-12-26T05:57:14.800Z,0
2016-12-26T05:57:55.330Z,0
2016-12-26T05:58:35.859Z,0
2016-12-26T05:59:16.393Z,0
2016-12-26T05:59:56.922Z,0
2016-12-26T06:00:37.456Z,0
2016-12-26T06:01:17.985Z,0
2016-12-26T06:01:58.517Z,0
2016-12-26T06:02:39.039Z,0
2016-12-26T06:03:19.562Z,0
2016-12-26T06:04:00.118Z,0
2016-12-26T06:04:40.645Z,0
2016-12-26T06:05:21.169Z,0
2016-12-26T06:06:01.687Z,0
2016-12-26T06:06:42.219Z,0
2016-12-26T06:07:22.744Z,0
2016-12-26T06:08:03.305Z,0
2016-12-26T06:08:43.835Z,0
2016-12-26T06:09:24.360Z,0
2016-12-26T06:10:04.899Z,0
2016-12-26T06:10:45.426Z,0
2016-12-26T06:11:25.954Z,0
2016-12-26T06:12:06.482Z,0
2016-12-26T06:12:47.008Z,0
2016-12-26T06:13:27.536Z,0
2016-12-26T06:14:08.070Z,0
2016-12-26T06:14:48.601Z,0
2016-12-26T06:15:29.135Z,0
2016-12-26T06:16:09.657Z,0
2016-12-26T06:16:50.184Z,0
2016-12-26T06:17:30.723Z,0
2016-12-26T06:18:11.254Z,0
2016-12-26T06:18:51.784Z,0
2016-12-26T06:19:32.309Z,0
2016-12-26T06:20:12.842Z,0
2016-12-26T06:20:53.371Z,0
2016-12-26T06:21:33.891Z,0
2016-12-26T06:22:14.420Z,0
2016-12-26T06:22:54.953Z,0
2016-12-26T06:23:35.478Z,0
2016-12-26T06:24:16.005Z,0
2016-12-26T06:24:56.536Z,0
2016-12-26T06:25:37.070Z,0
2016-12-26T06:26:17.600Z,0
2016-12-26T06:26:58.131Z,0
2016-12-26T06:27:38.675Z,0
2016-12-26T06:28:19.204Z,0
2016-12-26T06:28:59.734Z,0
2016-12-26T06:29:40.267Z,0
2016-12-26T06:30:20.801Z,0
2016-12-26T06:31:01.329Z,0
2016-12-26T06:31:41.854Z,0
2016-12-26T06:32:22.392Z,0
2016-12-26T06:33:02.927Z,0
2016-12-26T06:33:43.457Z,0
2016-12-26T06:34:24.004Z,0
2016-12-26T06:35:04.538Z,0
2016-12-26T06:35:45.079Z,0
2016-12-26T06:36:25.604Z,0
2016-12-26T06:37:06.158Z,0
2016-12-26T06:37:46.676Z,0
2016-12-26T06:38:27.209Z,0
2016-12-26T06:39:07.745Z,0
2016-12-26T06:39:48.279Z,0
2016-12-26T06:40:28.805Z,0
2016-12-26T06:41:09.336Z,0
2016-12-26T06:41:49.875Z,0
2016-12-26T06:42:30.409Z,0
2016-12-26T06:43:10.930Z,0
2016-12-26T06:43:51.463Z,0
2016-12-26T06:44:31.998Z,0
2016-12-26T06:45:12.529Z,0
2016-12-26T06:45:53.057Z,0
2016-12-26T06:46:33.582Z,0
2016-12-26T06:47:14.120Z,0
2016-12-26T06:47:54.655Z,0
2016-12-26T06:48:35.183Z,0
2016-12-26T06:49:15.712Z,0
2016-12-26T06:49:56.244Z,0
2016-12-26T06:50:36.777Z,0
2016-12-26T06:51:17.306Z,0
2016-12-26T06:51:57.847Z,0
2016-12-26T06:52:38.379Z,0
2016-12-26T06:53:18.908Z,0
2016-12-26T06:53:59.432Z,0
2016-12-26T06:54:39.955Z,0
2016-12-26T06:55:20.485Z,0
2016-12-26T06:56:01.015Z,0
2016-12-26T06:56:41.548Z,0
2016-12-26T06:57:22.079Z,0
2016-12-26T06:58:02.607Z,0
2016-12-26T06:58:43.138Z,0
2016-12-26T06:59:23.675Z,0
2016-12-26T07:00:04.207Z,0
2016-12-26T07:00:44.725Z,0
2016-12-26T07:01:25.253Z,0
2016-12-26T07:02:05.783Z,0
2016-12-26T07:02:46.324Z,0
2016-12-26T07:03:26.855Z,0
2016-12-26T07:04:07.381Z,0
2016-12-26T07:04:47.904Z,0
2016-12-26T07:05:28.439Z,0
2016-12-26T07:06:08.977Z,0
2016-12-26T07:06:49.505Z,0
2016-12-26T07:07:30.044Z,0
2016-12-26T07:08:10.564Z,0
2016-12-26T07:08:51.086Z,0
2016-12-26T07:09:31.615Z,0
2016-12-26T07:10:12.144Z,0
2016-12-26T07:10:52.676Z,0
2016-12-26T07:11:33.202Z,0
2016-12-26T07:12:13.736Z,0
2016-12-26T07:12:54.260Z,0
2016-12-26T07:13:34.791Z,0
2016-12-26T07:14:15.326Z,0
2016-12-26T07:14:55.870Z,0
2016-12-26T07:15:36.404Z,0
2016-12-26T07:16:16.930Z,0
2016-12-26T07:16:57.475Z,0
2016-12-26T07:17:38.005Z,0
2016-12-26T07:18:18.533Z,0
2016-12-26T07:18:59.064Z,0
2016-12-26T07:19:39.597Z,0
2016-12-26T07:20:20.165Z,0
2016-12-26T07:21:00.695Z,0
2016-12-26T07:21:41.230Z,0
2016-12-26T07:22:21.758Z,0
2016-12-26T07:23:02.284Z,0
2016-12-26T07:23:42.809Z,0
2016-12-26T07:24:23.346Z,0
2016-12-26T07:25:03.874Z,0
2016-12-26T07:25:44.396Z,0
2016-12-26T07:26:24.925Z,0
2016-12-26T07:27:05.454Z,0
2016-12-26T07:27:45.980Z,0
2016-12-26T07:28:26.508Z,0
2016-12-26T07:29:07.033Z,0
2016-12-26T07:29:47.571Z,0
2016-12-26T07:30:28.101Z,0
2016-12-26T07:31:08.628Z,0
2016-12-26T07:31:49.145Z,0
2016-12-26T07:32:29.673Z,0
2016-12-26T07:33:10.204Z,0
2016-12-26T07:33:50.733Z,0
2016-12-26T07:34:31.262Z,0
2016-12-26T07:35:11.793Z,0
2016-12-26T07:35:52.325Z,0
2016-12-26T07:36:32.849Z,0
2016-12-26T07:37:13.378Z,0
2016-12-26T07:37:53.907Z,0
2016-12-26T07:38:34.438Z,0
2016-12-26T07:39:15.012Z,0
2016-12-26T07:39:55.587Z,0
2016-12-26T07:40:36.153Z,0
2016-12-26T07:41:16.734Z,0
2016-12-26T07:41:57.310Z,0
2016-12-26T07:42:37.905Z,0
2016-12-26T07:43:18.504Z,0
2016-12-26T07:43:59.084Z,0
2016-12-26T07:44:39.659Z,0
2016-12-26T07:45:20.231Z,0
2016-12-26T07:46:00.810Z,0
2016-12-26T07:46:41.389Z,0
2016-12-26T07:47:21.953Z,0
2016-12-26T07:48:02.529Z,0
2016-12-26T07:48:43.087Z,0
2016-12-26T07:49:23.660Z,0
2016-12-26T07:50:04.242Z,5
2016-12-26T07:50:44.816Z,5
2016-12-26T07:51:25.394Z,5
2016-12-26T07:52:05.981Z,5
2016-12-26T07:52:46.552Z,5
2016-12-26T07:53:27.131Z,5
2016-12-26T07:54:07.707Z,5
2016-12-26T07:54:48.281Z,5
2016-12-26T07:55:28.845Z,5
2016-12-26T07:56:09.406Z,5
2016-12-26T07:56:49.983Z,5
2016-12-26T07:57:30.551Z,5
2016-12-26T07:58:11.161Z,5
2016-12-26T07:58:51.696Z,5
2016-12-26T07:59:32.215Z,5
2016-12-26T08:00:12.731Z,5
2016-12-26T08:00:53.258Z,5
2016-12-26T08:01:33.785Z,5
2016-12-26T08:02:14.337Z,5
2016-12-26T08:02:54.907Z,5
2016-12-26T08:03:35.465Z,5
2016-12-26T08:04:16.049Z,5
2016-12-26T08:04:56.651Z,5
2016-12-26T08:05:37.276Z,5
2016-12-26T08:06:17.808Z,5
2016-12-26T08:06:58.386Z,5
2016-12-26T08:07:38.964Z,5
2016-12-26T08:08:19.537Z,5
2016-12-26T08:09:00.119Z,5
2016-12-26T08:09:40.681Z,5
2016-12-26T08:10:21.246Z,5
2016-12-26T08:11:01.830Z,10
2016-12-26T08:11:42.400Z,5
2016-12-26T08:12:22.982Z,5
2016-12-26T08:13:03.557Z,5
2016-12-26T08:13:44.136Z,5
2016-12-26T08:14:24.713Z,0
2016-12-26T08:15:05.286Z,0
2016-12-26T08:15:45.854Z,5
2016-12-26T08:16:26.426Z,5
2016-12-26T08:17:07.001Z,5
2016-12-26T08:17:47.576Z,5
2016-12-26T08:18:28.153Z,5
2016-12-26T08:19:08.723Z,10
2016-12-26T08:19:49.296Z,10
2016-12-26T08:20:29.877Z,15
2016-12-26T08:21:10.461Z,15
2016-12-26T08:21:51.037Z,15
2016-12-26T08:22:31.615Z,15
2016-12-26T08:23:12.145Z,10
2016-12-26T08:23:52.665Z,10
2016-12-26T08:24:33.199Z,10
2016-12-26T08:25:13.736Z,10
2016-12-26T08:25:54.267Z,10
2016-12-26T08:26:34.787Z,10
2016-12-26T08:27:15.320Z,10
2016-12-26T08:27:55.852Z,10
2016-12-26T08:28:36.362Z,10
2016-12-26T08:29:16.889Z,10
2016-12-26T08:29:57.423Z,5
2016-12-26T08:30:37.952Z,5
2016-12-26T08:31:18.480Z,5
2016-12-26T08:31:59.026Z,5
2016-12-26T08:32:39.557Z,5
2016-12-26T08:33:20.085Z,5
2016-12-26T08:34:00.614Z,5
2016-12-26T08:34:41.154Z,5
2016-12-26T08:35:21.685Z,10
2016-12-26T08:36:02.210Z,10
2016-12-26T08:36:42.772Z,10
2016-12-26T08:37:23.298Z,15
2016-12-26T08:38:03.840Z,15
2016-12-26T08:38:44.388Z,15
2016-12-26T08:39:24.892Z,15
2016-12-26T08:40:05.435Z,15
2016-12-26T08:40:45.961Z,20
2016-12-26T08:41:26.543Z,20
2016-12-26T08:42:07.073Z,25
2016-12-26T08:42:47.634Z,30
2016-12-26T08:43:28.197Z,35
2016-12-26T08:44:08.773Z,35
2016-12-26T08:44:49.466Z,35
2016-12-26T08:45:30.042Z,40
2016-12-26T08:46:10.628Z,40
2016-12-26T08:46:51.257Z,45
2016-12-26T08:47:31.826Z,45
2016-12-26T08:48:12.366Z,50
2016-12-26T08:48:52.952Z,55
2016-12-26T08:49:33.529Z,60
2016-12-26T08:50:14.112Z,65
2016-12-26T08:50:54.683Z,65
2016-12-26T08:51:35.258Z,65
2016-12-26T08:52:15.890Z,60
2016-12-26T08:52:56.466Z,60
2016-12-26T08:53:37.048Z,55
2016-12-26T08:54:17.634Z,55
2016-12-26T08:54:58.203Z,50
2016-12-26T08:55:38.783Z,45
2016-12-26T08:56:19.360Z,35
2016-12-26T08:56:59.936Z,30
2016-12-26T08:57:40.513Z,25
2016-12-26T08:58:21.119Z,20
2016-12-26T08:59:01.665Z,25
2016-12-26T08:59:42.261Z,30
2016-12-26T09:00:22.817Z,30
2016-12-26T09:01:03.384Z,25
2016-12-26T09:01:43.960Z,20
2016-12-26T09:02:24.535Z,20
2016-12-26T09:03:05.115Z,25
2016-12-26T09:03:45.686Z,30
2016-12-26T09:04:26.268Z,30
2016-12-26T09:05:06.850Z,30
2016-12-26T09:05:47.421Z,30
2016-12-26T09:06:27.999Z,35
2016-12-26T09:07:08.572Z,40
2016-12-26T09:07:49.167Z,40
2016-12-26T09:08:29.774Z,40
2016-12-26T09:09:10.344Z,35
2016-12-26T09:09:50.924Z,35
2016-12-26T09:10:31.509Z,35
2016-12-26T09:11:12.185Z,35
2016-12-26T09:11:52.762Z,40
2016-12-26T09:12:33.341Z,40
2016-12-26T09:13:13.919Z,45
2016-12-26T09:13:54.489Z,45
2016-12-26T09:14:35.074Z,45
2016-12-26T09:15:15.656Z,45
2016-12-26T09:15:56.235Z,45
2016-12-26T09:16:36.817Z,45
2016-12-26T09:17:17.395Z,40
2016-12-26T09:17:57.975Z,35
2016-12-26T09:18:38.559Z,30
2016-12-26T09:19:19.130Z,25
2016-12-26T09:19:59.709Z,20
2016-12-26T09:20:40.285Z,20
2016-12-26T09:21:20.862Z,20
2016-12-26T09:22:01.387Z,20
2016-12-26T09:22:41.919Z,20
2016-12-26T09:23:22.457Z,20
2016-12-26T09:24:02.978Z,20
2016-12-26T09:24:43.517Z,20
2016-12-26T09:25:24.049Z,20
2016-12-26T09:26:04.575Z,20
2016-12-26T09:26:45.115Z,15
2016-12-26T09:27:25.645Z,15
2016-12-26T09:28:06.165Z,15
2016-12-26T09:28:46.697Z,15
2016-12-26T09:29:27.214Z,15
2016-12-26T09:30:07.751Z,15
2016-12-26T09:30:48.288Z,15
2016-12-26T09:31:28.818Z,15
2016-12-26T09:32:09.349Z,20
2016-12-26T09:32:49.875Z,20
2016-12-26T09:33:30.396Z,20
2016-12-26T09:34:10.915Z,20
2016-12-26T09:34:51.440Z,25
2016-12-26T09:35:31.976Z,25
2016-12-26T09:36:12.509Z,25
2016-12-26T09:36:53.043Z,25
2016-12-26T09:37:33.573Z,25
2016-12-26T09:38:14.104Z,20
2016-12-26T09:38:54.632Z,20
2016-12-26T09:39:36.040Z,10
2016-12-26T09:40:16.625Z,20
2016-12-26T09:40:57.183Z,20
2016-12-26T09:41:37.723Z,20
2016-12-26T09:42:18.252Z,20
2016-12-26T09:42:58.777Z,25
2016-12-26T09:44:53.494Z,25
2016-12-26T09:45:34.077Z,20
2016-12-26T09:46:14.644Z,20
2016-12-26T09:46:55.211Z,20
2016-12-26T09:47:35.798Z,20
2016-12-26T09:48:16.402Z,20
2016-12-26T09:48:56.927Z,20
2016-12-26T09:49:37.449Z,20
2016-12-26T09:50:17.978Z,20
2016-12-26T09:50:58.499Z,20
2016-12-26T09:51:39.004Z,20
2016-12-26T09:52:19.567Z,20
2016-12-26T09:53:00.099Z,25
2016-12-26T09:53:40.614Z,25
2016-12-26T09:54:21.142Z,25
2016-12-26T09:55:01.681Z,25
2016-12-26T09:55:42.214Z,20
2016-12-26T09:56:22.718Z,20
2016-12-26T09:57:03.254Z,20
2016-12-26T09:57:43.781Z,25